Time;durP1;ratioP1;P1;durP2;ratioP2;P2;SDS_P1;SDS_P2;PMS_P1;PMS_P2;Temp;Humidity;BMP_temperature;BMP_pressure;BME280_temperature;BME280_humidity;BME280_pressure;Samples;Min_cycle;Max_cycle;Signal;HPM_P1;HPM_P2
2023/04/20 00:00:53;;;;;;;12.80;11.73;;;;;;;20.71;41.27;94666.03;6152836;28;110533;-62
2023/04/20 00:03:56;;;;;;;14.20;13.00;;;;;;;20.67;41.17;94657.09;6164689;28;108895;-62
2023/04/20 00:07:03;;;;;;;15.87;14.57;;;;;;;20.63;41.66;94654.25;6170906;28;108932;-63
2023/04/20 00:10:08;;;;;;;16.10;14.70;;;;;;;20.59;41.42;94648.00;6131582;28;108891;-65
2023/04/20 00:13:11;;;;;;;17.63;16.20;;;;;;;20.60;41.25;94641.59;6150520;28;109232;-63
2023/04/20 00:16:16;;;;;;;17.20;15.80;;;;;;;20.66;41.44;94658.97;6186649;28;108930;-63
2023/04/20 00:19:21;;;;;;;18.53;17.00;;;;;;;20.66;41.40;94652.84;6178336;28;108882;-62
2023/04/20 00:22:25;;;;;;;20.20;18.37;;;;;;;20.67;41.53;94651.78;6161872;28;108895;-63
2023/04/20 00:25:29;;;;;;;19.13;17.53;;;;;;;20.66;41.74;94650.19;6182346;28;108959;-63
2023/04/20 00:28:32;;;;;;;20.70;18.80;;;;;;;20.62;41.42;94647.38;6145237;28;109014;-63
2023/04/20 00:31:37;;;;;;;21.30;19.50;;;;;;;20.64;41.31;94642.53;6179431;28;108886;-62
2023/04/20 00:34:40;;;;;;;21.03;19.23;;;;;;;20.65;41.48;94638.00;6157022;28;108944;-62
2023/04/20 00:37:43;;;;;;;21.00;19.30;;;;;;;20.63;41.46;94633.78;6171661;28;108987;-64
2023/04/20 00:40:51;;;;;;;21.73;20.00;;;;;;;20.63;41.42;94644.41;6171371;28;108920;-64
2023/04/20 00:43:55;;;;;;;22.97;21.07;;;;;;;20.63;41.71;94638.31;6161803;28;109056;-62
2023/04/20 00:47:00;;;;;;;24.03;22.13;;;;;;;20.63;41.28;94633.00;6157750;28;109298;-62
2023/04/20 00:50:03;;;;;;;22.60;20.80;;;;;;;20.65;41.47;94630.03;6166664;28;108881;-63
2023/04/20 00:53:08;;;;;;;25.17;22.67;;;;;;;20.64;41.47;94639.88;6165443;28;109056;-63
2023/04/20 00:56:12;;;;;;;24.90;22.80;;;;;;;20.65;41.12;94641.44;6147200;28;108898;-63
2023/04/20 00:59:16;;;;;;;25.23;23.20;;;;;;;20.60;41.54;94633.59;6172340;28;109088;-63
2023/04/20 01:02:21;;;;;;;25.80;23.67;;;;;;;20.63;41.39;94635.66;6166274;28;108901;-62
2023/04/20 01:05:25;;;;;;;25.90;23.53;;;;;;;20.61;41.14;94632.50;6162485;28;108888;-63
2023/04/20 01:08:29;;;;;;;25.70;23.50;;;;;;;20.63;41.20;94638.31;6152205;28;111293;-62
2023/04/20 01:11:32;;;;;;;26.40;24.10;;;;;;;20.63;41.40;94641.75;6162124;28;108828;-63
2023/04/20 01:14:35;;;;;;;25.67;23.50;;;;;;;20.60;41.03;94636.25;6162544;28;108902;-63
2023/04/20 01:17:40;;;;;;;25.80;23.70;;;;;;;20.58;41.00;94633.91;6158855;28;108907;-64
2023/04/20 01:20:43;;;;;;;26.17;23.97;;;;;;;20.61;40.63;94637.84;6159906;28;108895;-62
2023/04/20 01:23:48;;;;;;;25.80;23.50;;;;;;;20.60;41.08;94638.94;6168067;28;109040;-70
2023/04/20 01:26:51;;;;;;;27.23;25.13;;;;;;;20.62;41.23;94636.75;6166047;28;109113;-63
2023/04/20 01:29:54;;;;;;;28.37;25.97;;;;;;;20.60;41.51;94628.28;6153576;28;110884;-63
2023/04/20 01:32:57;;;;;;;28.87;26.47;;;;;;;20.57;41.13;94631.56;6168471;28;109202;-63
2023/04/20 01:36:00;;;;;;;28.83;26.43;;;;;;;20.55;41.16;94620.47;6164674;28;109030;-63
2023/04/20 01:39:05;;;;;;;29.63;27.03;;;;;;;20.59;41.09;94626.72;6164721;28;109058;-63
2023/04/20 01:42:08;;;;;;;29.57;27.10;;;;;;;20.59;40.85;94635.47;6150906;28;109237;-63
2023/04/20 01:45:11;;;;;;;29.47;27.07;;;;;;;20.59;40.99;94629.38;6163277;28;108903;-64
2023/04/20 01:48:14;;;;;;;30.53;27.97;;;;;;;20.57;41.13;94618.28;6161829;28;108907;-63
2023/04/20 01:51:17;;;;;;;29.73;27.23;;;;;;;20.58;41.00;94614.53;6176693;28;108899;-63
2023/04/20 01:54:22;;;;;;;28.30;26.00;;;;;;;20.57;41.15;94611.09;6151883;28;108974;-63
2023/04/20 01:57:25;;;;;;;29.47;26.97;;;;;;;20.58;40.88;94607.34;6185756;28;108942;-63
2023/04/20 02:00:28;;;;;;;29.83;27.43;;;;;;;20.60;40.70;94609.69;6177625;28;108818;-63
2023/04/20 02:03:31;;;;;;;31.80;29.10;;;;;;;20.63;40.95;94615.16;6157503;28;109174;-63
2023/04/20 02:06:34;;;;;;;29.80;27.40;;;;;;;20.62;40.88;94604.84;6163874;28;109079;-63
2023/04/20 02:09:39;;;;;;;29.20;26.60;;;;;;;20.54;40.97;94600.28;6162190;28;109023;-63
2023/04/20 02:12:42;;;;;;;28.63;26.17;;;;;;;20.60;41.37;94615.00;6175214;28;108963;-63
2023/04/20 02:15:45;;;;;;;28.80;26.40;;;;;;;20.53;41.30;94604.03;6162383;28;110659;-63
2023/04/20 02:18:48;;;;;;;30.10;27.60;;;;;;;20.63;41.08;94612.50;6181984;28;108979;-63
2023/04/20 02:21:51;;;;;;;30.77;28.27;;;;;;;20.60;41.43;94618.44;6174591;28;108947;-63
2023/04/20 02:24:56;;;;;;;29.33;26.93;;;;;;;20.60;41.63;94618.44;6168703;28;108944;-63
2023/04/20 02:27:59;;;;;;;27.00;24.60;;;;;;;20.61;41.43;94616.56;6166310;28;109005;-63
2023/04/20 02:31:02;;;;;;;28.07;25.67;;;;;;;20.57;41.33;94610.31;6165809;28;108922;-63
2023/04/20 02:34:08;;;;;;;28.97;26.43;;;;;;;20.54;41.10;94602.94;6166272;28;109174;-63
2023/04/20 02:37:11;;;;;;;29.27;26.70;;;;;;;20.59;41.27;94611.56;6174330;28;108977;-64
2023/04/20 02:40:15;;;;;;;29.30;26.50;;;;;;;20.53;41.40;94602.16;6161367;28;109185;-64
2023/04/20 02:43:19;;;;;;;29.10;26.50;;;;;;;20.58;41.35;94619.84;6175738;28;108906;-63
2023/04/20 02:46:22;;;;;;;28.47;26.00;;;;;;;20.58;41.17;94617.19;6176461;28;108829;-63
2023/04/20 02:49:25;;;;;;;26.97;24.60;;;;;;;20.59;41.01;94621.41;6153053;28;109360;-68
2023/04/20 02:52:28;;;;;;;28.10;25.50;;;;;;;20.57;40.99;94624.38;6164483;28;108914;-63
2023/04/20 02:55:32;;;;;;;28.70;26.27;;;;;;;20.53;41.23;94617.31;6165143;28;108901;-63
2023/04/20 02:58:36;;;;;;;28.10;25.90;;;;;;;20.58;41.01;94614.53;6178650;28;109155;-62
2023/04/20 03:01:39;;;;;;;30.40;27.70;;;;;;;20.56;41.10;94617.50;6158199;28;108996;-63
2023/04/20 03:04:42;;;;;;;29.50;26.90;;;;;;;20.59;40.88;94626.72;6168513;28;108865;-62
2023/04/20 03:07:45;;;;;;;29.80;27.27;;;;;;;20.59;41.05;94616.88;6180367;28;109163;-63
2023/04/20 03:10:50;;;;;;;31.90;29.10;;;;;;;20.59;41.14;94616.09;6167330;28;108943;-63
2023/04/20 03:13:53;;;;;;;28.20;25.80;;;;;;;20.58;40.99;94609.22;6152465;28;108949;-63
2023/04/20 03:16:56;;;;;;;27.10;24.60;;;;;;;20.63;41.44;94611.72;6164383;28;108969;-62
2023/04/20 03:19:59;;;;;;;33.10;30.23;;;;;;;20.66;40.94;94613.75;6163602;28;108888;-62
2023/04/20 03:23:02;;;;;;;83.10;76.83;;;;;;;20.67;41.74;94623.34;6159002;28;108892;-62
2023/04/20 03:26:06;;;;;;;100.17;92.87;;;;;;;20.68;42.66;94619.59;6166510;28;110195;-65
2023/04/20 03:29:09;;;;;;;78.53;72.23;;;;;;;20.65;42.47;94609.53;6159219;28;109041;-65
2023/04/20 03:32:12;;;;;;;69.50;63.90;;;;;;;20.72;41.95;94620.53;6162287;28;108898;-64
2023/04/20 03:35:16;;;;;;;62.37;57.47;;;;;;;20.73;42.24;94621.31;6153069;28;109167;-65
2023/04/20 03:38:20;;;;;;;59.60;54.97;;;;;;;20.71;41.74;94624.28;6163127;28;109157;-65
2023/04/20 03:41:24;;;;;;;57.53;53.03;;;;;;;20.72;42.74;94619.75;6163554;28;108932;-65
2023/04/20 03:44:27;;;;;;;25.20;23.10;;;;;;;20.38;40.17;94613.19;6163256;28;108960;-66
2023/04/20 03:47:30;;;;;;;13.50;12.40;;;;;;;19.65;38.84;94624.97;6152525;28;108971;-67
2023/04/20 03:50:33;;;;;;;10.00;9.30;;;;;;;19.49;38.48;94621.09;6164795;28;108884;-66
2023/04/20 03:53:36;;;;;;;10.07;9.27;;;;;;;19.72;39.08;94626.16;6186714;28;108914;-66
2023/04/20 03:56:43;;;;;;;10.03;8.70;;;;;;;19.88;38.97;94629.25;6173550;28;108819;-66
2023/04/20 03:59:46;;;;;;;9.30;8.60;;;;;;;20.05;38.89;94633.88;6155023;28;109286;-63
2023/04/20 04:02:50;;;;;;;9.13;8.33;;;;;;;20.13;39.05;94627.84;6161722;28;109015;-66
2023/04/20 04:05:53;;;;;;;8.80;8.00;;;;;;;20.24;38.72;94637.16;6162880;28;108945;-66
2023/04/20 04:08:56;;;;;;;8.83;8.13;;;;;;;20.25;38.33;94628.09;6152466;28;108982;-64
2023/04/20 04:12:03;;;;;;;8.03;7.43;;;;;;;20.30;38.28;94630.63;6162494;28;108911;-67
2023/04/20 04:15:08;;;;;;;8.83;8.13;;;;;;;20.33;38.39;94634.56;6162044;28;109029;-64
2023/04/20 04:18:11;;;;;;;9.10;8.20;;;;;;;20.35;38.47;94636.94;6163383;28;108949;-66
2023/04/20 04:21:14;;;;;;;9.47;8.47;;;;;;;20.44;38.76;94643.06;6149664;28;108861;-65
2023/04/20 04:24:17;;;;;;;8.13;7.30;;;;;;;20.20;38.84;94622.13;6162101;28;108856;-66
2023/04/20 04:27:22;;;;;;;8.67;7.97;;;;;;;20.30;38.86;94645.78;6162424;28;108913;-65
2023/04/20 04:30:26;;;;;;;9.07;7.77;;;;;;;20.25;38.93;94654.69;6162579;28;108991;-66
2023/04/20 04:33:29;;;;;;;8.20;7.40;;;;;;;20.19;39.04;94636.50;6153100;28;110005;-66
2023/04/20 04:36:32;;;;;;;8.10;7.30;;;;;;;20.21;38.69;94653.69;6162425;28;108905;-66
2023/04/20 04:39:36;;;;;;;8.30;7.60;;;;;;;20.21;38.83;94650.25;6162352;28;109052;-66
2023/04/20 04:42:40;;;;;;;8.03;7.33;;;;;;;20.19;38.83;94655.88;6157193;28;108887;-66
2023/04/20 04:45:44;;;;;;;8.53;7.73;;;;;;;20.19;38.73;94658.53;6156751;28;108916;-66
2023/04/20 04:48:47;;;;;;;9.43;8.10;;;;;;;20.17;38.83;94655.38;6162301;28;108915;-66
2023/04/20 04:51:50;;;;;;;8.17;7.57;;;;;;;20.14;38.70;94655.97;6161700;28;108875;-66
2023/04/20 04:54:53;;;;;;;8.20;7.50;;;;;;;20.13;38.88;94662.38;6151537;28;108897;-66
2023/04/20 04:57:58;;;;;;;9.63;7.87;;;;;;;20.14;38.74;94666.59;6162284;28;108909;-67
2023/04/20 05:01:01;;;;;;;8.57;7.90;;;;;;;20.10;38.38;94655.00;6162086;28;108946;-64
2023/04/20 05:04:04;;;;;;;10.80;8.53;;;;;;;20.10;38.53;94659.53;6162231;28;108790;-67
2023/04/20 05:07:09;;;;;;;8.70;8.10;;;;;;;20.09;38.60;94668.59;6152223;28;109847;-67
2023/04/20 05:10:12;;;;;;;8.97;8.20;;;;;;;20.07;38.55;94663.59;6161856;28;108913;-67
2023/04/20 05:13:18;;;;;;;7.60;7.00;;;;;;;20.00;38.21;94658.72;6162093;28;109018;-66
2023/04/20 05:16:21;;;;;;;8.80;8.10;;;;;;;20.03;38.16;94667.94;6157433;28;108914;-67
2023/04/20 05:19:25;;;;;;;10.53;7.80;;;;;;;19.99;38.16;94661.63;6156741;28;108917;-66
2023/04/20 05:22:28;;;;;;;9.17;8.37;;;;;;;20.01;40.40;94667.47;6161193;28;108929;-66
2023/04/20 05:25:31;;;;;;;9.30;8.07;;;;;;;20.05;38.49;94665.75;6161704;28;108873;-66
2023/04/20 05:28:36;;;;;;;9.00;8.27;;;;;;;20.03;38.03;94667.94;6152464;28;108877;-66
2023/04/20 05:31:39;;;;;;;8.83;8.13;;;;;;;20.02;37.82;94669.81;6149529;28;108932;-66
2023/04/20 05:34:42;;;;;;;8.77;7.87;;;;;;;20.01;37.94;94668.25;6137709;28;109038;-66
2023/04/20 05:37:46;;;;;;;9.10;8.20;;;;;;;20.03;37.94;94667.94;6137520;28;108915;-66
2023/04/20 05:40:49;;;;;;;9.27;8.47;;;;;;;19.98;37.81;94674.13;6126731;28;109329;-66
2023/04/20 05:43:55;;;;;;;9.13;8.40;;;;;;;19.82;37.97;94651.66;6155513;28;108872;-68
2023/04/20 05:46:58;;;;;;;9.00;8.20;;;;;;;20.01;38.26;94684.19;6161775;28;109017;-68
2023/04/20 05:50:01;;;;;;;10.40;9.60;;;;;;;20.00;37.96;94673.84;6157044;28;108879;-66
2023/04/20 05:53:04;;;;;;;10.50;9.60;;;;;;;20.00;38.10;94673.84;6149841;28;109347;-66
2023/04/20 05:56:08;;;;;;;9.83;9.03;;;;;;;20.01;37.93;94680.75;6160466;28;108885;-66
2023/04/20 05:59:12;;;;;;;9.33;7.97;;;;;;;20.00;38.11;94674.66;6161073;28;108891;-65
2023/04/20 06:02:15;;;;;;;9.67;8.70;;;;;;;20.00;38.16;94677.28;6156033;28;110735;-67
2023/04/20 06:05:19;;;;;;;9.50;8.60;;;;;;;20.00;38.11;94673.84;6156934;28;109044;-65
2023/04/20 06:08:22;;;;;;;10.53;9.57;;;;;;;19.99;38.16;94673.03;6161118;28;108476;-67
2023/04/20 06:11:25;;;;;;;9.90;9.00;;;;;;;19.98;38.12;94681.31;6160924;28;108929;-67
2023/04/20 06:14:30;;;;;;;10.70;9.80;;;;;;;20.00;38.02;94679.94;6151415;28;108944;-67
2023/04/20 06:17:36;;;;;;;9.80;8.70;;;;;;;19.93;38.55;94681.44;6156924;28;108876;-69
2023/04/20 06:20:39;;;;;;;11.17;10.13;;;;;;;19.90;38.40;94679.38;6157898;28;109106;-66
2023/04/20 06:23:43;;;;;;;10.97;10.13;;;;;;;19.86;38.01;94673.91;6159957;28;108901;-67
2023/04/20 06:26:46;;;;;;;11.03;10.13;;;;;;;19.92;38.41;94675.34;6149935;28;109064;-67
2023/04/20 06:29:50;;;;;;;10.17;9.37;;;;;;;19.95;38.18;94687.22;6160649;28;109012;-66
2023/04/20 06:32:53;;;;;;;10.07;9.17;;;;;;;19.91;38.65;94683.63;6160789;28;108830;-71
2023/04/20 06:35:57;;;;;;;10.57;9.67;;;;;;;19.92;38.27;94677.22;6155823;28;108916;-66
2023/04/20 06:39:00;;;;;;;11.70;10.50;;;;;;;19.88;38.23;94669.06;6154568;28;108969;-63
2023/04/20 06:42:03;;;;;;;11.23;10.23;;;;;;;19.95;38.14;94689.88;6160199;28;109007;-68
2023/04/20 06:45:08;;;;;;;10.70;9.80;;;;;;;19.89;38.37;94697.19;6160736;28;108977;-64
2023/04/20 06:48:11;;;;;;;11.40;10.40;;;;;;;19.86;38.31;94697.00;6150080;28;109231;-64
2023/04/20 06:51:33;;;;;;;11.57;10.43;;;;;;;19.84;38.44;94691.22;6160260;28;108907;-65
2023/04/20 06:54:36;;;;;;;12.37;10.97;;;;;;;19.82;38.21;94699.47;6159216;28;108974;-64
2023/04/20 06:57:42;;;;;;;11.33;10.23;;;;;;;19.80;38.35;94698.97;6147758;28;108925;-65
2023/04/20 07:00:47;;;;;;;14.40;13.30;;;;;;;19.63;38.72;94707.56;6125475;28;110397;-65
2023/04/20 07:03:51;;;;;;;13.53;12.53;;;;;;;19.53;38.95;94707.78;6135182;28;108906;-66
2023/04/20 07:06:54;;;;;;;12.10;11.10;;;;;;;19.63;38.81;94714.75;6138746;28;108879;-65
2023/04/20 07:09:57;;;;;;;11.23;10.33;;;;;;;19.67;38.79;94708.56;6135654;28;109177;-66
2023/04/20 07:13:01;;;;;;;11.00;10.03;;;;;;;19.71;38.62;94714.84;6144611;28;108943;-66
2023/04/20 07:16:05;;;;;;;11.10;10.20;;;;;;;19.75;38.61;94717.69;6163930;28;108995;-65
2023/04/20 07:19:09;;;;;;;12.20;11.30;;;;;;;19.72;38.54;94716.41;6164173;28;108817;-65
2023/04/20 07:22:12;;;;;;;12.43;11.50;;;;;;;19.25;39.45;94716.81;6153320;28;109392;-66
2023/04/20 07:25:16;;;;;;;11.43;10.47;;;;;;;19.18;39.86;94711.13;6163289;28;108891;-67
2023/04/20 07:28:19;;;;;;;10.83;9.93;;;;;;;19.34;39.83;94713.19;6163663;28;108954;-60
2023/04/20 07:31:24;;;;;;;10.93;10.13;;;;;;;19.31;39.64;94705.78;6163482;28;108946;-60
2023/04/20 07:34:27;;;;;;;12.13;11.00;;;;;;;19.26;39.46;94705.13;6152651;28;109226;-59
2023/04/20 07:37:30;;;;;;;11.90;11.00;;;;;;;19.25;39.64;94703.56;6163795;28;108937;-60
2023/04/20 07:40:34;;;;;;;10.00;9.30;;;;;;;19.29;39.63;94707.19;6163378;28;109322;-60
2023/04/20 07:43:37;;;;;;;11.00;10.07;;;;;;;19.23;39.78;94697.75;6163667;28;108931;-62
2023/04/20 07:46:41;;;;;;;11.30;10.43;;;;;;;19.32;39.41;94711.88;6152919;28;108880;-61
2023/04/20 07:49:45;;;;;;;10.80;9.73;;;;;;;19.28;39.76;94708.25;6163230;28;108962;-61
2023/04/20 07:52:48;;;;;;;10.60;9.60;;;;;;;19.33;39.67;94700.22;6163224;28;109000;-62
2023/04/20 07:55:51;;;;;;;11.90;10.90;;;;;;;19.39;40.24;94712.28;6157169;28;108977;-62
2023/04/20 07:58:54;;;;;;;10.50;9.60;;;;;;;19.46;39.52;94702.09;6159045;28;108749;-61
2023/04/20 08:02:01;;;;;;;10.67;9.87;;;;;;;19.49;39.72;94704.16;6162440;28;108877;-61
2023/04/20 08:05:05;;;;;;;10.90;10.00;;;;;;;19.57;39.74;94708.75;6162968;28;108876;-62
2023/04/20 08:08:08;;;;;;;13.13;11.00;;;;;;;19.54;39.58;94712.00;6152388;28;109169;-61
2023/04/20 08:11:12;;;;;;;11.73;10.77;;;;;;;19.46;39.75;94694.13;6163116;28;108931;-62
2023/04/20 08:14:15;;;;;;;11.53;10.63;;;;;;;19.55;39.42;94710.16;6163095;28;108989;-61
2023/04/20 08:17:20;;;;;;;11.33;10.43;;;;;;;19.57;39.50;94710.63;6162657;28;109202;-66
2023/04/20 08:20:23;;;;;;;11.70;10.67;;;;;;;19.56;39.66;94707.19;6152424;28;109702;-62
2023/04/20 08:23:27;;;;;;;12.33;10.97;;;;;;;19.55;39.44;94708.28;6162588;28;108904;-62
2023/04/20 08:26:31;;;;;;;14.70;13.13;;;;;;;19.59;39.43;94706.59;6161871;28;108912;-60
2023/04/20 08:29:34;;;;;;;14.07;12.67;;;;;;;19.62;39.54;94706.00;6158306;28;109311;-60
2023/04/20 08:32:39;;;;;;;12.90;11.90;;;;;;;19.64;39.50;94706.47;6157480;28;108740;-61
2023/04/20 08:35:43;;;;;;;13.27;12.07;;;;;;;19.54;39.32;94692.66;6162584;28;108916;-61
2023/04/20 08:38:46;;;;;;;12.73;11.50;;;;;;;19.61;39.35;94709.72;6162497;28;108881;-60
2023/04/20 08:41:52;;;;;;;13.03;11.90;;;;;;;19.60;39.58;94713.47;6152300;28;109236;-61
2023/04/20 08:44:58;;;;;;;11.37;10.47;;;;;;;19.59;39.23;94708.47;6162749;28;108941;-61
2023/04/20 08:48:07;;;;;;;11.60;10.10;;;;;;;19.59;39.25;94703.94;6162944;28;108832;-62
2023/04/20 08:51:11;;;;;;;10.77;9.87;;;;;;;19.60;39.14;94713.47;6162582;28;108738;-68
2023/04/20 08:54:15;;;;;;;11.43;10.53;;;;;;;19.62;39.03;94711.31;6151445;28;108955;-61
2023/04/20 08:57:19;;;;;;;10.60;9.70;;;;;;;19.62;39.29;94705.22;6161213;28;108911;-62
2023/04/20 09:00:22;;;;;;;11.03;10.13;;;;;;;19.62;39.31;94711.31;6162213;28;109034;-60
2023/04/20 09:03:33;;;;;;;10.13;9.33;;;;;;;19.63;38.93;94712.09;6159736;28;108964;-60
2023/04/20 09:06:37;;;;;;;10.27;9.50;;;;;;;19.64;39.15;94714.44;6156926;28;109429;-60
2023/04/20 09:09:40;;;;;;;10.63;9.80;;;;;;;19.65;39.23;94710.69;6156022;28;108869;-61
2023/04/20 09:12:43;;;;;;;10.30;9.47;;;;;;;19.70;39.14;94707.19;6160556;28;108854;-60
2023/04/20 09:15:46;;;;;;;10.30;9.47;;;;;;;19.77;39.21;94712.06;6152273;28;110061;-60
2023/04/20 09:18:53;;;;;;;10.27;9.47;;;;;;;19.78;39.18;94703.00;6162197;28;108925;-60
2023/04/20 09:21:58;;;;;;;10.90;10.10;;;;;;;19.75;39.25;94708.94;6161846;28;108863;-61
2023/04/20 09:25:13;;;;;;;10.07;9.17;;;;;;;19.72;39.09;94692.53;6161968;28;108920;-60
2023/04/20 09:28:16;;;;;;;11.20;10.30;;;;;;;19.81;39.20;94697.09;6150086;28;108864;-61
2023/04/20 09:31:21;;;;;;;10.83;9.90;;;;;;;19.83;39.10;94702.94;6161007;28;108940;-60
2023/04/20 09:34:26;;;;;;;11.20;10.30;;;;;;;19.84;39.00;94696.53;6161436;28;108899;-61
2023/04/20 09:37:29;;;;;;;11.60;10.63;;;;;;;19.86;39.09;94689.03;6160445;28;109189;-60
2023/04/20 09:40:33;;;;;;;10.87;9.97;;;;;;;19.89;39.11;94694.53;6154267;28;108902;-60
2023/04/20 09:43:36;;;;;;;10.43;9.53;;;;;;;19.90;38.95;94685.47;6161533;28;108920;-61
2023/04/20 09:46:41;;;;;;;11.17;10.27;;;;;;;19.92;38.99;94695.81;6161368;28;108904;-60
2023/04/20 09:49:46;;;;;;;10.30;9.60;;;;;;;19.93;39.18;94689.41;6151741;28;109430;-60
2023/04/20 09:52:50;;;;;;;10.83;10.00;;;;;;;19.93;39.04;94700.03;6161141;28;109006;-61
2023/04/20 09:55:53;;;;;;;10.60;9.60;;;;;;;19.89;38.99;94683.13;6161148;28;108859;-60
2023/04/20 09:58:57;;;;;;;9.60;8.90;;;;;;;19.93;39.08;94679.56;6160260;28;108894;-61
2023/04/20 10:02:01;;;;;;;10.27;9.47;;;;;;;19.95;39.09;94677.41;6150240;28;109095;-61
2023/04/20 10:05:07;;;;;;;10.00;9.20;;;;;;;19.95;39.01;94673.97;6161115;28;108875;-61
2023/04/20 10:08:10;;;;;;;10.60;9.80;;;;;;;20.00;39.02;94673.84;6161058;28;108876;-61
2023/04/20 10:11:25;;;;;;;11.17;10.27;;;;;;;20.00;39.22;94665.88;6160935;28;108905;-61
2023/04/20 10:14:34;;;;;;;11.00;10.10;;;;;;;19.93;38.94;94647.69;6151203;28;110002;-61
2023/04/20 10:17:37;;;;;;;10.63;9.73;;;;;;;20.04;39.26;94664.19;6160766;28;108914;-60
2023/04/20 10:20:42;;;;;;;10.73;9.90;;;;;;;20.06;39.02;94677.16;6161003;28;108969;-60
2023/04/20 10:23:49;;;;;;;10.67;9.60;;;;;;;20.07;38.96;94668.13;6151202;28;108953;-61
2023/04/20 10:26:52;;;;;;;10.23;9.53;;;;;;;20.07;38.64;94662.81;6160345;28;108963;-60
2023/04/20 10:29:57;;;;;;;11.37;10.47;;;;;;;20.09;39.14;94657.97;6160211;28;108736;-60
2023/04/20 10:33:05;;;;;;;10.60;9.80;;;;;;;20.09;39.15;94665.94;6161044;28;108885;-60
2023/04/20 10:36:10;;;;;;;10.33;9.63;;;;;;;20.13;39.10;94664.25;6151080;28;109619;-61
2023/04/20 10:39:15;;;;;;;9.83;9.20;;;;;;;20.17;38.93;94659.91;6160419;28;108971;-61
2023/04/20 10:42:21;;;;;;;9.70;8.90;;;;;;;20.20;39.08;94657.44;6164692;28;108783;-60
2023/04/20 10:45:34;;;;;;;10.27;9.57;;;;;;;20.21;39.17;94653.69;6164934;28;108997;-60
2023/04/20 10:48:37;;;;;;;10.47;9.63;;;;;;;20.24;39.17;94661.09;6154799;28;109274;-60
2023/04/20 10:51:48;;;;;;;9.50;8.90;;;;;;;20.20;39.38;94646.81;6165381;28;108886;-61
2023/04/20 10:54:51;;;;;;;10.90;10.07;;;;;;;20.26;39.20;94660.78;6164630;28;108950;-60
2023/04/20 10:57:54;;;;;;;10.63;9.73;;;;;;;20.28;38.96;94658.59;6154636;28;110699;-61
2023/04/20 11:00:58;;;;;;;9.53;8.80;;;;;;;20.24;39.52;94653.13;6163275;28;108989;-61
2023/04/20 11:04:01;;;;;;;9.70;8.90;;;;;;;20.31;39.52;94645.47;6164064;28;108845;-61
2023/04/20 11:07:07;;;;;;;9.30;8.60;;;;;;;20.34;39.42;94646.78;6164401;28;108916;-61
2023/04/20 11:10:10;;;;;;;9.47;8.77;;;;;;;20.35;39.52;94639.59;6155090;28;110394;-63
2023/04/20 11:13:21;;;;;;;9.37;8.60;;;;;;;20.35;39.46;94643.03;6164089;28;108931;-61
2023/04/20 11:16:24;;;;;;;9.43;8.73;;;;;;;20.34;39.64;94640.69;6164187;28;109035;-61
2023/04/20 11:19:46;;;;;;;9.27;8.50;;;;;;;20.32;39.53;94636.41;6162009;28;108992;-61
2023/04/20 11:22:57;;;;;;;9.00;8.20;;;;;;;20.31;39.06;94634.06;6157093;28;108868;-61
2023/04/20 11:26:00;;;;;;;9.20;8.50;;;;;;;20.28;39.14;94630.16;6164231;28;108826;-61
2023/04/20 11:29:03;;;;;;;9.30;8.47;;;;;;;20.27;39.14;94630.47;6164042;28;109017;-61
2023/04/20 11:32:07;;;;;;;8.70;7.97;;;;;;;20.24;38.98;94637.16;6152555;28;110085;-60
2023/04/20 11:35:11;;;;;;;8.63;8.03;;;;;;;20.23;38.89;94632.91;6163593;28;108954;-61
2023/04/20 11:38:26;;;;;;;8.90;8.20;;;;;;;20.17;38.77;94625.38;6163525;28;108904;-60
2023/04/20 11:41:29;;;;;;;8.53;7.83;;;;;;;20.26;38.70;94634.22;6163607;28;108934;-61
2023/04/20 11:44:35;;;;;;;8.70;7.90;;;;;;;20.27;38.91;94625.94;6152928;28;109020;-63
2023/04/20 11:47:39;;;;;;;8.70;8.03;;;;;;;20.47;39.61;94631.81;6163866;28;108871;-64
2023/04/20 11:50:43;;;;;;;9.50;8.80;;;;;;;20.49;39.41;94630.41;6163546;28;109043;-67
2023/04/20 11:53:47;;;;;;;9.10;8.40;;;;;;;20.54;39.55;94630.31;6162606;28;109037;-64
2023/04/20 11:56:50;;;;;;;8.60;8.00;;;;;;;20.53;39.83;94623.44;6155198;28;109616;-64
2023/04/20 11:59:53;;;;;;;9.10;8.30;;;;;;;20.42;39.53;94608.03;6163096;28;108998;-65
2023/04/20 12:02:56;;;;;;;8.83;7.93;;;;;;;20.49;39.54;94624.31;6162087;28;109192;-65
2023/04/20 12:06:00;;;;;;;8.33;7.63;;;;;;;20.51;39.49;94627.47;6153808;28;108988;-64
2023/04/20 12:09:06;;;;;;;8.53;7.83;;;;;;;20.49;39.35;94625.09;6162470;28;109024;-64
2023/04/20 12:12:09;;;;;;;8.30;7.60;;;;;;;20.51;39.37;94624.81;6162944;28;109012;-65
2023/04/20 12:15:12;;;;;;;8.60;7.80;;;;;;;20.49;38.83;94611.81;6163014;28;108926;-67
2023/04/20 12:18:15;;;;;;;8.77;8.07;;;;;;;20.55;39.47;94620.47;6152764;28;111120;-64
2023/04/20 12:21:18;;;;;;;8.90;8.20;;;;;;;20.53;38.64;94618.09;6162894;28;108958;-64
2023/04/20 12:24:23;;;;;;;8.23;7.63;;;;;;;20.53;38.66;94615.44;6162889;28;108899;-64
2023/04/20 12:27:26;;;;;;;8.33;7.73;;;;;;;20.53;38.54;94622.63;6162702;28;109003;-64
2023/04/20 12:30:29;;;;;;;8.60;7.90;;;;;;;20.52;38.47;94621.06;6152029;28;109567;-60
2023/04/20 12:33:32;;;;;;;7.40;6.90;;;;;;;20.43;38.33;94614.91;6161850;28;108934;-60
2023/04/20 12:36:35;;;;;;;8.23;7.47;;;;;;;20.28;38.54;94605.47;6162519;28;109057;-60
2023/04/20 12:39:40;;;;;;;7.97;7.47;;;;;;;20.23;38.61;94613.53;6157415;28;109316;-60
2023/04/20 12:42:43;;;;;;;8.30;7.70;;;;;;;20.17;38.70;94609.44;6156285;28;109357;-60
2023/04/20 12:45:46;;;;;;;8.73;8.00;;;;;;;20.11;38.86;94611.41;6162278;28;108917;-60
2023/04/20 12:48:49;;;;;;;8.50;7.80;;;;;;;20.10;38.80;94614.38;6162326;28;108910;-63
2023/04/20 12:51:52;;;;;;;9.00;8.17;;;;;;;20.06;39.47;94624.84;6151314;28;110109;-60
2023/04/20 12:54:57;;;;;;;8.40;7.63;;;;;;;20.06;39.96;94619.53;6162388;28;108947;-60
2023/04/20 12:58:00;;;;;;;7.60;7.10;;;;;;;20.04;39.91;94613.72;6162014;28;108923;-60
2023/04/20 13:01:03;;;;;;;7.87;7.27;;;;;;;20.01;40.03;94612.47;6167478;28;108924;-61
2023/04/20 13:04:06;;;;;;;7.80;7.20;;;;;;;19.97;40.47;94613.34;6159274;28;109218;-60
2023/04/20 13:07:10;;;;;;;8.20;7.40;;;;;;;19.94;40.57;94624.59;6169231;28;108856;-61
2023/04/20 13:10:17;;;;;;;7.27;6.77;;;;;;;19.92;40.16;94621.44;6145425;28;109012;-61
2023/04/20 13:13:20;;;;;;;7.30;6.80;;;;;;;19.98;40.24;94633.50;6150091;28;108917;-61
2023/04/20 13:16:23;;;;;;;6.73;6.23;;;;;;;19.99;40.14;94635.09;6146968;28;111081;-60
2023/04/20 13:19:27;;;;;;;7.60;7.00;;;;;;;19.95;40.18;94628.81;6140496;28;108937;-60
2023/04/20 13:22:30;;;;;;;6.50;6.00;;;;;;;20.01;40.33;94628.41;6137367;28;108887;-60
2023/04/20 13:25:37;;;;;;;7.30;6.60;;;;;;;20.14;40.05;94621.44;6130561;28;108918;-60
2023/04/20 13:28:40;;;;;;;7.00;6.40;;;;;;;20.22;39.64;94617.28;6150292;28;108951;-60
2023/04/20 13:31:43;;;;;;;6.67;6.17;;;;;;;20.27;40.21;94617.19;6161688;28;108724;-60
2023/04/20 13:34:46;;;;;;;6.80;6.30;;;;;;;20.28;39.77;94614.22;6160817;28;108994;-61
2023/04/20 13:37:49;;;;;;;6.73;6.23;;;;;;;20.36;39.60;94614.59;6150465;28;109212;-61
2023/04/20 13:40:54;;;;;;;6.30;5.80;;;;;;;20.38;39.71;94618.50;6161348;28;108904;-61
2023/04/20 13:43:57;;;;;;;6.20;5.40;;;;;;;20.41;39.77;94617.09;6161293;28;108993;-61
2023/04/20 13:47:01;;;;;;;6.30;5.80;;;;;;;20.42;39.68;94606.16;6161382;28;108823;-61
2023/04/20 13:50:04;;;;;;;6.63;6.03;;;;;;;20.43;40.00;94612.25;6142368;28;109492;-64
2023/04/20 13:53:07;;;;;;;7.67;6.90;;;;;;;20.46;40.18;94609.78;6161321;28;108880;-66
2023/04/20 13:56:12;;;;;;;10.60;7.40;;;;;;;20.39;40.15;94603.34;6161729;28;108885;-67
2023/04/20 13:59:15;;;;;;;12.03;8.50;;;;;;;20.44;40.28;94608.50;6159464;28;109072;-68
2023/04/20 14:02:18;;;;;;;10.00;9.07;;;;;;;20.48;40.50;94609.47;6133676;28;109143;-67
2023/04/20 14:05:21;;;;;;;11.13;10.10;;;;;;;20.46;40.82;94606.34;6136610;28;108809;-67